sensor_id;sensor_type;location;lat;lon;timestamp;pressure;altitude;pressure_sealevel;temperature;humidity
47260;BME280;32999;52.412;4.890;2023-02-10T09:24:26;103637.09;;;10.18;100.00
47260;BME280;32999;52.412;4.890;2023-02-10T09:29:27;103603.28;;;10.30;100.00
47260;BME280;32999;52.412;4.890;2023-02-10T09:34:29;103639.63;;;11.35;100.00
47260;BME280;32999;52.412;4.890;2023-02-10T09:39:33;103637.75;;;11.69;100.00
47260;BME280;32999;52.412;4.890;2023-02-10T09:44:36;103617.75;;;11.73;100.00
47260;BME280;32999;52.412;4.890;2023-02-10T09:49:54;103623.81;;;12.50;100.00
47260;BME280;32999;52.412;4.890;2023-02-10T09:55:09;103620.47;;;12.57;100.00
47260;BME280;32999;52.412;4.890;2023-02-10T10:00:22;103606.59;;;13.34;100.00
47260;BME280;32999;52.412;4.890;2023-02-10T10:05:38;103590.34;;;13.36;100.00
47260;BME280;32999;52.412;4.890;2023-02-10T10:10:44;103612.47;;;14.16;100.00
47260;BME280;32999;52.412;4.890;2023-02-10T10:15:55;103601.66;;;13.49;100.00
47260;BME280;32999;52.412;4.890;2023-02-10T10:21:05;103628.81;;;12.64;100.00
47260;BME280;32999;52.412;4.890;2023-02-10T10:26:24;103622.69;;;12.32;100.00
47260;BME280;32999;52.412;4.890;2023-02-10T10:31:33;103638.31;;;12.26;100.00
47260;BME280;32999;52.412;4.890;2023-02-10T10:36:41;103635.84;;;12.55;100.00
47260;BME280;32999;52.412;4.890;2023-02-10T10:41:46;103549.88;;;11.51;100.00
47260;BME280;32999;52.412;4.890;2023-02-10T10:46:52;103632.44;;;12.53;100.00
47260;BME280;32999;52.412;4.890;2023-02-10T10:51:59;103634.69;;;11.73;100.00
47260;BME280;32999;52.412;4.890;2023-02-10T10:57:04;103535.09;;;11.14;100.00
47260;BME280;32999;52.412;4.890;2023-02-10T11:02:11;103538.75;;;11.24;100.00
47260;BME280;32999;52.412;4.890;2023-02-10T11:07:18;103634.22;;;11.68;100.00
47260;BME280;32999;52.412;4.890;2023-02-10T11:12:27;103603.28;;;11.86;100.00
47260;BME280;32999;52.412;4.890;2023-02-10T11:17:33;103591.34;;;12.11;100.00
47260;BME280;32999;52.412;4.890;2023-02-10T11:22:36;103576.53;;;11.96;100.00
47260;BME280;32999;52.412;4.890;2023-02-10T11:27:49;103577.88;;;12.22;100.00
47260;BME280;32999;52.412;4.890;2023-02-10T11:32:51;103578.00;;;12.21;100.00
47260;BME280;32999;52.412;4.890;2023-02-10T11:37:54;103511.06;;;11.03;100.00
47260;BME280;32999;52.412;4.890;2023-02-10T11:42:59;103578.19;;;11.87;100.00
47260;BME280;32999;52.412;4.890;2023-02-10T11:48:04;103588.03;;;11.76;100.00
47260;BME280;32999;52.412;4.890;2023-02-10T11:53:10;103519.03;;;11.36;100.00
47260;BME280;32999;52.412;4.890;2023-02-10T11:58:42;103499.56;;;11.34;100.00
47260;BME280;32999;52.412;4.890;2023-02-10T12:04:15;103598.13;;;12.15;100.00
47260;BME280;32999;52.412;4.890;2023-02-10T12:09:27;103613.69;;;12.01;100.00
47260;BME280;32999;52.412;4.890;2023-02-10T12:14:44;103596.53;;;11.92;100.00
47260;BME280;32999;52.412;4.890;2023-02-10T12:19:52;103497.63;;;11.14;100.00
47260;BME280;32999;52.412;4.890;2023-02-10T12:25:09;103592.38;;;11.99;100.00
47260;BME280;32999;52.412;4.890;2023-02-10T12:30:25;103548.72;;;11.33;100.00
47260;BME280;32999;52.412;4.890;2023-02-10T12:35:37;103488.13;;;11.21;100.00
47260;BME280;32999;52.412;4.890;2023-02-10T12:40:45;103564.94;;;11.64;100.00
47260;BME280;32999;52.412;4.890;2023-02-10T12:46:02;103555.53;;;11.26;100.00
47260;BME280;32999;52.412;4.890;2023-02-10T12:51:19;103528.03;;;11.24;100.00
47260;BME280;32999;52.412;4.890;2023-02-10T12:56:26;103506.56;;;10.92;100.00
47260;BME280;32999;52.412;4.890;2023-02-10T13:01:35;103496.75;;;10.81;100.00
47260;BME280;32999;52.412;4.890;2023-02-10T13:06:42;103477.50;;;10.65;100.00
47260;BME280;32999;52.412;4.890;2023-02-10T13:11:53;103494.28;;;10.45;100.00
47260;BME280;32999;52.412;4.890;2023-02-10T13:16:58;103506.72;;;10.57;100.00
47260;BME280;32999;52.412;4.890;2023-02-10T13:22:05;103499.41;;;10.48;100.00
47260;BME280;32999;52.412;4.890;2023-02-10T13:27:31;103382.97;;;9.99;100.00
47260;BME280;32999;52.412;4.890;2023-02-10T13:32:45;103422.81;;;10.13;100.00
47260;BME280;32999;52.412;4.890;2023-02-10T13:37:51;103463.91;;;10.23;100.00
47260;BME280;32999;52.412;4.890;2023-02-10T13:43:00;103487.22;;;10.21;100.00
47260;BME280;32999;52.412;4.890;2023-02-10T13:48:06;103479.78;;;10.14;100.00
47260;BME280;32999;52.412;4.890;2023-02-10T13:53:39;103452.75;;;10.30;100.00
47260;BME280;32999;52.412;4.890;2023-02-10T13:58:57;103437.66;;;10.51;100.00
47260;BME280;32999;52.412;4.890;2023-02-10T14:04:01;103449.97;;;9.96;100.00
47260;BME280;32999;52.412;4.890;2023-02-10T14:09:05;103470.44;;;10.08;100.00
47260;BME280;32999;52.412;4.890;2023-02-10T14:14:20;103401.16;;;9.83;100.00
47260;BME280;32999;52.412;4.890;2023-02-10T14:19:31;103452.44;;;10.10;100.00
47260;BME280;32999;52.412;4.890;2023-02-10T14:24:35;103484.75;;;10.07;100.00
47260;BME280;32999;52.412;4.890;2023-02-10T14:29:40;103450.16;;;9.60;100.00
47260;BME280;32999;52.412;4.890;2023-02-10T14:35:14;103476.81;;;9.83;100.00
47260;BME280;32999;52.412;4.890;2023-02-10T14:40:32;103461.00;;;9.45;100.00
47260;BME280;32999;52.412;4.890;2023-02-10T14:45:34;103443.47;;;9.65;100.00
47260;BME280;32999;52.412;4.890;2023-02-10T14:50:40;103384.13;;;9.27;100.00
47260;BME280;32999;52.412;4.890;2023-02-10T14:55:45;103427.25;;;9.44;100.00
47260;BME280;32999;52.412;4.890;2023-02-10T15:00:54;103426.28;;;9.45;100.00
47260;BME280;32999;52.412;4.890;2023-02-10T15:05:59;103398.84;;;9.08;100.00
47260;BME280;32999;52.412;4.890;2023-02-10T15:11:21;103442.53;;;9.18;100.00
47260;BME280;32999;52.412;4.890;2023-02-10T15:16:42;103442.81;;;9.15;100.00
47260;BME280;32999;52.412;4.890;2023-02-10T15:27:22;103434.91;;;9.38;100.00
47260;BME280;32999;52.412;4.890;2023-02-10T15:32:24;103434.22;;;9.23;100.00
47260;BME280;32999;52.412;4.890;2023-02-10T15:37:27;103438.75;;;9.10;100.00
47260;BME280;32999;52.412;4.890;2023-02-10T15:42:54;103428.56;;;8.91;100.00
47260;BME280;32999;52.412;4.890;2023-02-10T15:48:19;103421.56;;;8.90;100.00
47260;BME280;32999;52.412;4.890;2023-02-10T16:11:59;103416.97;;;8.30;100.00
47260;BME280;32999;52.412;4.890;2023-02-10T17:06:25;103416.34;;;7.89;100.00
47260;BME280;32999;52.412;4.890;2023-02-10T17:12:26;103423.91;;;7.95;100.00
47260;BME280;32999;52.412;4.890;2023-02-10T17:18:40;103418.69;;;7.93;100.00
47260;BME280;32999;52.412;4.890;2023-02-10T17:54:33;103389.28;;;7.82;100.00
47260;BME280;32999;52.412;4.890;2023-02-10T18:06:02;103376.38;;;7.50;100.00
47260;BME280;32999;52.412;4.890;2023-02-10T18:11:31;103404.38;;;7.69;100.00
47260;BME280;32999;52.412;4.890;2023-02-10T18:16:46;103402.59;;;7.82;100.00
47260;BME280;32999;52.412;4.890;2023-02-10T19:33:44;103393.22;;;8.14;100.00
47260;BME280;32999;52.412;4.890;2023-02-10T20:27:22;103415.38;;;8.28;100.00
47260;BME280;32999;52.412;4.890;2023-02-10T20:33:21;103419.03;;;8.39;100.00
47260;BME280;32999;52.412;4.890;2023-02-10T20:45:04;103421.88;;;8.49;100.00
47260;BME280;32999;52.412;4.890;2023-02-10T20:50:33;103427.81;;;8.65;100.00
47260;BME280;32999;52.412;4.890;2023-02-10T20:55:42;103433.31;;;8.75;100.00
47260;BME280;32999;52.412;4.890;2023-02-10T21:00:46;103357.75;;;8.14;100.00
47260;BME280;32999;52.412;4.890;2023-02-10T21:06:07;103421.34;;;8.57;100.00
47260;BME280;32999;52.412;4.890;2023-02-10T21:11:12;103412.63;;;8.78;100.00
47260;BME280;32999;52.412;4.890;2023-02-10T21:16:23;103418.19;;;8.75;100.00
47260;BME280;32999;52.412;4.890;2023-02-10T21:22:14;103414.81;;;8.61;100.00
47260;BME280;32999;52.412;4.890;2023-02-10T21:33:26;103419.47;;;8.70;100.00
47260;BME280;32999;52.412;4.890;2023-02-10T21:38:47;103427.03;;;8.76;100.00
47260;BME280;32999;52.412;4.890;2023-02-10T21:44:11;103438.19;;;8.57;100.00
47260;BME280;32999;52.412;4.890;2023-02-10T21:49:39;103377.25;;;8.40;100.00
47260;BME280;32999;52.412;4.890;2023-02-10T21:54:42;103428.63;;;8.78;100.00
47260;BME280;32999;52.412;4.890;2023-02-10T21:59:45;103427.00;;;8.89;100.00
47260;BME280;32999;52.412;4.890;2023-02-10T22:04:49;103359.22;;;8.31;100.00
47260;BME280;32999;52.412;4.890;2023-02-10T22:09:52;103394.34;;;8.61;100.00
47260;BME280;32999;52.412;4.890;2023-02-10T22:14:54;103415.31;;;9.02;100.00
47260;BME280;32999;52.412;4.890;2023-02-10T22:19:57;103314.88;;;8.30;100.00
47260;BME280;32999;52.412;4.890;2023-02-10T22:24:59;103361.28;;;8.64;100.00
47260;BME280;32999;52.412;4.890;2023-02-10T22:30:00;103411.50;;;8.94;100.00
47260;BME280;32999;52.412;4.890;2023-02-10T22:35:04;103353.44;;;8.73;100.00
47260;BME280;32999;52.412;4.890;2023-02-10T22:40:07;103420.31;;;9.07;100.00
47260;BME280;32999;52.412;4.890;2023-02-10T22:45:09;103327.81;;;8.60;100.00
47260;BME280;32999;52.412;4.890;2023-02-10T22:50:12;103398.56;;;8.76;100.00
47260;BME280;32999;52.412;4.890;2023-02-10T22:55:41;103406.00;;;9.08;100.00
47260;BME280;32999;52.412;4.890;2023-02-10T23:01:33;103397.31;;;9.17;100.00
47260;BME280;32999;52.412;4.890;2023-02-10T23:06:37;103396.44;;;9.16;100.00
47260;BME280;32999;52.412;4.890;2023-02-10T23:11:42;103293.69;;;8.41;100.00
47260;BME280;32999;52.412;4.890;2023-02-10T23:16:47;103374.75;;;9.21;100.00
47260;BME280;32999;52.412;4.890;2023-02-10T23:22:20;103378.41;;;8.96;100.00
47260;BME280;32999;52.412;4.890;2023-02-10T23:27:23;103370.38;;;9.09;100.00
47260;BME280;32999;52.412;4.890;2023-02-10T23:32:26;103309.16;;;8.83;100.00
47260;BME280;32999;52.412;4.890;2023-02-10T23:37:29;103301.09;;;8.72;100.00
47260;BME280;32999;52.412;4.890;2023-02-10T23:42:31;103350.94;;;9.07;100.00
47260;BME280;32999;52.412;4.890;2023-02-10T23:47:33;103321.19;;;8.65;100.00
47260;BME280;32999;52.412;4.890;2023-02-10T23:52:39;103359.19;;;9.04;100.00
47260;BME280;32999;52.412;4.890;2023-02-10T23:57:49;103357.06;;;8.96;100.00
